Terminal Aerodrome Forecast
Issued by NWS

Home | Current Version | Previous Version | Text Only | Print | Product List | Glossary On
Versions: 1 2 3 4 5 6 7 8 9 10 11 12 13 14 15 16 17 18 19 20 21 22 23 24 25 26 27 28 29 30 31 32 33 34 35 36 37 38 39 40
000
FTUS41 KPBZ 230211 AAB
TAFDUJ
TAF AMD
KDUJ 230211Z 2302/2324 31015G32KT 6SM -SN OVC022
     FM230800 32012G25KT P6SM SCT015
     FM231500 32012G18KT P6SM SKC=

USA.gov is the U.S. government's official web portal to all federal, state and local government web resources and services.